EZY59ZF LIRZ-LGTS
Flight info
| Callsign | EZY59ZF |
|---|---|
| Flight time | 1h 15m |
| Altitude | 38000 |
| Route | KATAR L865 ANC L612 VIE Q920 ENOXA Y2 PAPIZ DCT PINDO UM603 EDASI |
| Aircraft | A20N/M-SDE2E3FGHIRWXY/LB1 |
Departure
| Time | 2026-04-29 19:57 |
|---|---|
| Airport | Perugia San Francesco d'Assisi – Umbria International Airport (LIRZ) |
Arrival
| Time | 2026-04-29 21:12 |
|---|---|
| Airport | Thessaloniki Macedonia International Airport (LGTS) |
| Time | Latitude | Longitude | Altitude | Speed | Heading |
|---|---|---|---|---|---|
| 2026-04-29 19:48 | 43.09467 | 12.50382 | 683 ft | 0 kts | 282° |
| 2026-04-29 19:53 | 43.09461 | 12.50419 | 681 ft | 10 kts | 282° |
| 2026-04-29 19:53 | 43.09454 | 12.50474 | 684 ft | 6 kts | 225° |
| 2026-04-29 19:53 | 43.09394 | 12.50495 | 681 ft | 10 kts | 147° |
| 2026-04-29 19:53 | 43.09335 | 12.50548 | 681 ft | 10 kts | 147° |
| 2026-04-29 19:54 | 43.09251 | 12.50691 | 679 ft | 10 kts | 117° |
| 2026-04-29 19:54 | 43.09195 | 12.50744 | 677 ft | 10 kts | 160° |
| 2026-04-29 19:54 | 43.09138 | 12.50793 | 677 ft | 10 kts | 129° |
| 2026-04-29 19:55 | 43.09092 | 12.50859 | 677 ft | 10 kts | 125° |
| 2026-04-29 19:55 | 43.09061 | 12.50942 | 677 ft | 10 kts | 111° |
| 2026-04-29 19:55 | 43.09034 | 12.51031 | 676 ft | 9 kts | 114° |
| 2026-04-29 19:55 | 43.09039 | 12.51108 | 679 ft | 8 kts | 24° |
| 2026-04-29 19:56 | 43.09076 | 12.51128 | 681 ft | 30 kts | 19° |
| 2026-04-29 19:56 | 43.09570 | 12.51300 | 679 ft | 114 kts | 13° |
| 2026-04-29 19:56 | 43.10545 | 12.51632 | 721 ft | 172 kts | 13° |
| 2026-04-29 19:56 | 43.11757 | 12.52065 | 1198 ft | 198 kts | 13° |
| 2026-04-29 19:57 | 43.13248 | 12.52561 | 1635 ft | 234 kts | 13° |
| 2026-04-29 19:57 | 43.14298 | 12.52878 | 2432 ft | 231 kts | 5° |
| 2026-04-29 19:57 | 43.16423 | 12.52229 | 3554 ft | 249 kts | 326° |
| 2026-04-29 19:57 | 43.17650 | 12.50469 | 4166 ft | 267 kts | 297° |
| 2026-04-29 19:58 | 43.18174 | 12.47960 | 4739 ft | 287 kts | 271° |
| 2026-04-29 19:58 | 43.17797 | 12.45240 | 5458 ft | 298 kts | 245° |
| 2026-04-29 19:58 | 43.16591 | 12.42911 | 6384 ft | 304 kts | 226° |
| 2026-04-29 19:58 | 43.15103 | 12.40827 | 7351 ft | 306 kts | 223° |
| 2026-04-29 19:59 | 43.13309 | 12.39261 | 8357 ft | 310 kts | 200° |
| 2026-04-29 19:59 | 43.11161 | 12.38825 | 9308 ft | 318 kts | 177° |
| 2026-04-29 19:59 | 43.09019 | 12.39634 | 10228 ft | 327 kts | 154° |
| 2026-04-29 19:59 | 43.07219 | 12.41585 | 11026 ft | 338 kts | 131° |
| 2026-04-29 20:00 | 43.06079 | 12.44375 | 11828 ft | 346 kts | 108° |
| 2026-04-29 20:00 | 43.05770 | 12.47628 | 12631 ft | 352 kts | 85° |
| 2026-04-29 20:00 | 43.06360 | 12.50851 | 13432 ft | 355 kts | 64° |
| 2026-04-29 20:00 | 43.07500 | 12.53895 | 14206 ft | 360 kts | 60° |
| 2026-04-29 20:01 | 43.08597 | 12.56983 | 14973 ft | 363 kts | 65° |
| 2026-04-29 20:01 | 43.09516 | 12.60220 | 15736 ft | 368 kts | 69° |
| 2026-04-29 20:01 | 43.10291 | 12.63579 | 16468 ft | 372 kts | 72° |
| 2026-04-29 20:01 | 43.10988 | 12.67014 | 17199 ft | 377 kts | 73° |
| 2026-04-29 20:02 | 43.11653 | 12.70498 | 17915 ft | 381 kts | 74° |
| 2026-04-29 20:02 | 43.12315 | 12.74024 | 18592 ft | 385 kts | 74° |
| 2026-04-29 20:02 | 43.12984 | 12.77594 | 19200 ft | 389 kts | 74° |
| 2026-04-29 20:02 | 43.13433 | 12.79976 | 19598 ft | 392 kts | 73° |
| 2026-04-29 20:03 | 43.14356 | 12.84847 | 20412 ft | 398 kts | 73° |
| 2026-04-29 20:03 | 43.15055 | 12.88537 | 20997 ft | 402 kts | 73° |
| 2026-04-29 20:03 | 43.15759 | 12.92259 | 21602 ft | 406 kts | 73° |
| 2026-04-29 20:03 | 43.16468 | 12.96017 | 22177 ft | 410 kts | 73° |
| 2026-04-29 20:04 | 43.17183 | 12.99818 | 22735 ft | 414 kts | 73° |
| 2026-04-29 20:04 | 43.17906 | 13.03662 | 23291 ft | 419 kts | 73° |
| 2026-04-29 20:04 | 43.18634 | 13.07547 | 23839 ft | 423 kts | 73° |
| 2026-04-29 20:04 | 43.19367 | 13.11457 | 24337 ft | 425 kts | 73° |
| 2026-04-29 20:05 | 43.20104 | 13.15400 | 24851 ft | 428 kts | 73° |
| 2026-04-29 20:05 | 43.20844 | 13.19361 | 25339 ft | 431 kts | 73° |
| 2026-04-29 20:05 | 43.21588 | 13.23357 | 25803 ft | 434 kts | 73° |
| 2026-04-29 20:05 | 43.22336 | 13.27382 | 26286 ft | 437 kts | 73° |
| 2026-04-29 20:06 | 43.23086 | 13.31428 | 26725 ft | 440 kts | 73° |
| 2026-04-29 20:06 | 43.23840 | 13.35501 | 27148 ft | 443 kts | 73° |
| 2026-04-29 20:06 | 43.24591 | 13.39567 | 27584 ft | 445 kts | 73° |
| 2026-04-29 20:06 | 43.25352 | 13.43693 | 28012 ft | 448 kts | 73° |
| 2026-04-29 20:07 | 43.26116 | 13.47850 | 28413 ft | 451 kts | 73° |
| 2026-04-29 20:07 | 43.26884 | 13.52032 | 28818 ft | 454 kts | 73° |
| 2026-04-29 20:07 | 43.27656 | 13.56248 | 29195 ft | 456 kts | 73° |
| 2026-04-29 20:07 | 43.28428 | 13.60475 | 29571 ft | 459 kts | 73° |
| 2026-04-29 20:08 | 43.29204 | 13.64737 | 29945 ft | 461 kts | 73° |
| 2026-04-29 20:08 | 43.29467 | 13.66179 | 30066 ft | 462 kts | 73° |
| 2026-04-29 20:08 | 43.30766 | 13.73335 | 30602 ft | 467 kts | 73° |
| 2026-04-29 20:08 | 43.31550 | 13.77671 | 30925 ft | 469 kts | 73° |
| 2026-04-29 20:09 | 43.32069 | 13.82092 | 31340 ft | 471 kts | 85° |
| 2026-04-29 20:09 | 43.31907 | 13.86589 | 31737 ft | 473 kts | 98° |
| 2026-04-29 20:09 | 43.31055 | 13.90954 | 32122 ft | 474 kts | 112° |
| 2026-04-29 20:09 | 43.29565 | 13.94940 | 32495 ft | 473 kts | 125° |
| 2026-04-29 20:10 | 43.27500 | 13.98416 | 32849 ft | 470 kts | 136° |
| 2026-04-29 20:10 | 43.25176 | 14.01524 | 33222 ft | 469 kts | 139° |
| 2026-04-29 20:10 | 43.22843 | 14.04654 | 33610 ft | 469 kts | 137° |
| 2026-04-29 20:10 | 43.20607 | 14.07844 | 33979 ft | 469 kts | 135° |
| 2026-04-29 20:11 | 43.18417 | 14.11134 | 34310 ft | 469 kts | 134° |
| 2026-04-29 20:11 | 43.16983 | 14.13345 | 34506 ft | 468 kts | 133° |
| 2026-04-29 20:11 | 43.14162 | 14.17761 | 35183 ft | 460 kts | 133° |
| 2026-04-29 20:11 | 43.12768 | 14.19954 | 35332 ft | 461 kts | 133° |
| 2026-04-29 20:12 | 43.10661 | 14.23270 | 35505 ft | 463 kts | 133° |
| 2026-04-29 20:12 | 43.08541 | 14.26602 | 35704 ft | 465 kts | 133° |
| 2026-04-29 20:12 | 43.06412 | 14.29941 | 35907 ft | 466 kts | 133° |
| 2026-04-29 20:12 | 43.04275 | 14.33286 | 36107 ft | 467 kts | 133° |
| 2026-04-29 20:13 | 43.02136 | 14.36631 | 36286 ft | 468 kts | 133° |
| 2026-04-29 20:13 | 42.99986 | 14.39987 | 36453 ft | 470 kts | 133° |
| 2026-04-29 20:13 | 42.97829 | 14.43351 | 36654 ft | 471 kts | 133° |
| 2026-04-29 20:13 | 42.95667 | 14.46720 | 36820 ft | 472 kts | 133° |
| 2026-04-29 20:14 | 42.93496 | 14.50097 | 36985 ft | 474 kts | 133° |
| 2026-04-29 20:14 | 42.91322 | 14.53476 | 37138 ft | 475 kts | 133° |
| 2026-04-29 20:14 | 42.89138 | 14.56866 | 37281 ft | 476 kts | 133° |
| 2026-04-29 20:14 | 42.86945 | 14.60265 | 37454 ft | 477 kts | 133° |
| 2026-04-29 20:15 | 42.84747 | 14.63669 | 37605 ft | 479 kts | 133° |
| 2026-04-29 20:15 | 42.82547 | 14.67072 | 37743 ft | 480 kts | 133° |
| 2026-04-29 20:15 | 42.80336 | 14.70488 | 37892 ft | 481 kts | 133° |
| 2026-04-29 20:15 | 42.78119 | 14.73909 | 38024 ft | 482 kts | 133° |
| 2026-04-29 20:16 | 42.75898 | 14.77332 | 38178 ft | 483 kts | 133° |
| 2026-04-29 20:16 | 42.73700 | 14.80716 | 38296 ft | 484 kts | 133° |
| 2026-04-29 20:16 | 42.71466 | 14.84150 | 38414 ft | 485 kts | 133° |
| 2026-04-29 20:16 | 42.69227 | 14.87589 | 38562 ft | 486 kts | 133° |
| 2026-04-29 20:17 | 42.66983 | 14.91031 | 38680 ft | 487 kts | 133° |
| 2026-04-29 20:17 | 42.64734 | 14.94478 | 38771 ft | 488 kts | 133° |
| 2026-04-29 20:17 | 42.60228 | 15.01369 | 38944 ft | 489 kts | 134° |
| 2026-04-29 20:18 | 42.55702 | 15.08274 | 39047 ft | 490 kts | 134° |
| 2026-04-29 20:18 | 42.51167 | 15.15177 | 39048 ft | 489 kts | 134° |
| 2026-04-29 20:19 | 42.46639 | 15.22055 | 39045 ft | 489 kts | 134° |
| 2026-04-29 20:19 | 42.42115 | 15.28936 | 39046 ft | 489 kts | 134° |
| 2026-04-29 20:20 | 42.37589 | 15.35808 | 39044 ft | 489 kts | 134° |
| 2026-04-29 20:20 | 42.33062 | 15.42660 | 39042 ft | 488 kts | 134° |
| 2026-04-29 20:21 | 42.28541 | 15.49485 | 39042 ft | 488 kts | 134° |
| 2026-04-29 20:21 | 42.23973 | 15.56334 | 39038 ft | 492 kts | 134° |
| 2026-04-29 20:22 | 42.19369 | 15.63219 | 39049 ft | 495 kts | 134° |
| 2026-04-29 20:22 | 42.14749 | 15.70117 | 39053 ft | 496 kts | 134° |
| 2026-04-29 20:23 | 42.10158 | 15.76957 | 39063 ft | 495 kts | 134° |
| 2026-04-29 20:23 | 42.05537 | 15.83825 | 39066 ft | 495 kts | 134° |
| 2026-04-29 20:24 | 42.00908 | 15.90687 | 39068 ft | 495 kts | 134° |
| 2026-04-29 20:24 | 41.96280 | 15.97533 | 39069 ft | 495 kts | 134° |
| 2026-04-29 20:25 | 41.91725 | 16.04455 | 39063 ft | 496 kts | 129° |
| 2026-04-29 20:25 | 41.88085 | 16.12336 | 39050 ft | 498 kts | 121° |
| 2026-04-29 20:26 | 41.84640 | 16.20409 | 39043 ft | 498 kts | 121° |
| 2026-04-29 20:26 | 41.81173 | 16.28469 | 39026 ft | 499 kts | 121° |
| 2026-04-29 20:27 | 41.78286 | 16.35160 | 39024 ft | 499 kts | 121° |
| 2026-04-29 20:27 | 41.74215 | 16.44569 | 39024 ft | 500 kts | 121° |
| 2026-04-29 20:28 | 41.70721 | 16.52620 | 39022 ft | 500 kts | 121° |
| 2026-04-29 20:28 | 41.67243 | 16.60616 | 39021 ft | 500 kts | 121° |
| 2026-04-29 20:29 | 41.63737 | 16.68655 | 39017 ft | 500 kts | 122° |
| 2026-04-29 20:29 | 41.60248 | 16.76620 | 39020 ft | 500 kts | 122° |
| 2026-04-29 20:30 | 41.56726 | 16.84625 | 39017 ft | 499 kts | 122° |
| 2026-04-29 20:30 | 41.53215 | 16.92624 | 39017 ft | 499 kts | 122° |
| 2026-04-29 20:31 | 41.49700 | 17.00610 | 39016 ft | 499 kts | 122° |
| 2026-04-29 20:31 | 41.46181 | 17.08576 | 39019 ft | 498 kts | 122° |
| 2026-04-29 20:32 | 41.42655 | 17.16537 | 39013 ft | 498 kts | 122° |
| 2026-04-29 20:32 | 41.39134 | 17.24466 | 39016 ft | 498 kts | 122° |
| 2026-04-29 20:33 | 41.35599 | 17.32406 | 39014 ft | 498 kts | 122° |
| 2026-04-29 20:33 | 41.32059 | 17.40335 | 39014 ft | 498 kts | 122° |
| 2026-04-29 20:34 | 41.28518 | 17.48249 | 39018 ft | 498 kts | 122° |
| 2026-04-29 20:34 | 41.24971 | 17.56152 | 39016 ft | 499 kts | 122° |
| 2026-04-29 20:35 | 41.21423 | 17.64063 | 39018 ft | 499 kts | 120° |
| 2026-04-29 20:35 | 41.18772 | 17.72590 | 39024 ft | 501 kts | 107° |
| 2026-04-29 20:36 | 41.16720 | 17.81407 | 39023 ft | 501 kts | 108° |
| 2026-04-29 20:36 | 41.14655 | 17.90137 | 39028 ft | 500 kts | 108° |
| 2026-04-29 20:37 | 41.12543 | 17.99020 | 39034 ft | 500 kts | 108° |
| 2026-04-29 20:37 | 41.10459 | 18.07756 | 39033 ft | 500 kts | 108° |
| 2026-04-29 20:38 | 41.08358 | 18.16529 | 39040 ft | 500 kts | 108° |
| 2026-04-29 20:38 | 41.06246 | 18.25314 | 39041 ft | 499 kts | 108° |
| 2026-04-29 20:39 | 41.04129 | 18.34088 | 39044 ft | 499 kts | 108° |
| 2026-04-29 20:39 | 41.02007 | 18.42847 | 39038 ft | 499 kts | 108° |
| 2026-04-29 20:40 | 40.99880 | 18.51594 | 39050 ft | 500 kts | 108° |
| 2026-04-29 20:40 | 40.97744 | 18.60345 | 39052 ft | 500 kts | 108° |
| 2026-04-29 20:41 | 40.95601 | 18.69094 | 39051 ft | 500 kts | 108° |
| 2026-04-29 20:41 | 40.93448 | 18.77849 | 39056 ft | 500 kts | 108° |
| 2026-04-29 20:42 | 40.91302 | 18.86543 | 39060 ft | 500 kts | 108° |
| 2026-04-29 20:42 | 40.89139 | 18.95280 | 39062 ft | 500 kts | 108° |
| 2026-04-29 20:43 | 40.87286 | 19.04144 | 39066 ft | 501 kts | 104° |
| 2026-04-29 20:43 | 40.85622 | 19.13088 | 39059 ft | 501 kts | 104° |
| 2026-04-29 20:44 | 40.83897 | 19.21992 | 39068 ft | 501 kts | 104° |
| 2026-04-29 20:44 | 40.82136 | 19.30888 | 39062 ft | 501 kts | 105° |
| 2026-04-29 20:45 | 40.80366 | 19.39775 | 39064 ft | 501 kts | 105° |
| 2026-04-29 20:45 | 40.78599 | 19.48611 | 39069 ft | 501 kts | 105° |
| 2026-04-29 20:46 | 40.76813 | 19.57504 | 39074 ft | 501 kts | 105° |
| 2026-04-29 20:46 | 40.75023 | 19.66381 | 39074 ft | 501 kts | 105° |
| 2026-04-29 20:47 | 40.73225 | 19.75257 | 39077 ft | 501 kts | 105° |
| 2026-04-29 20:47 | 40.71717 | 19.82676 | 39082 ft | 500 kts | 105° |
| 2026-04-29 20:48 | 40.69615 | 19.92965 | 39085 ft | 500 kts | 105° |
| 2026-04-29 20:48 | 40.67798 | 20.01823 | 39087 ft | 500 kts | 105° |
| 2026-04-29 20:49 | 40.65976 | 20.10666 | 39094 ft | 500 kts | 105° |
| 2026-04-29 20:49 | 40.64146 | 20.19508 | 39105 ft | 501 kts | 105° |
| 2026-04-29 20:50 | 40.62324 | 20.28277 | 39106 ft | 499 kts | 105° |
| 2026-04-29 20:50 | 40.60483 | 20.37097 | 39105 ft | 500 kts | 105° |
| 2026-04-29 20:51 | 40.58636 | 20.45910 | 39110 ft | 500 kts | 105° |
| 2026-04-29 20:51 | 40.56782 | 20.54718 | 39110 ft | 500 kts | 105° |
| 2026-04-29 20:52 | 40.54921 | 20.63531 | 39115 ft | 500 kts | 105° |
| 2026-04-29 20:52 | 40.53051 | 20.72341 | 39113 ft | 500 kts | 105° |
| 2026-04-29 20:53 | 40.51174 | 20.81153 | 39113 ft | 500 kts | 106° |
| 2026-04-29 20:53 | 40.49303 | 20.89899 | 39108 ft | 500 kts | 106° |
| 2026-04-29 20:54 | 40.47351 | 21.03320 | 39105 ft | 500 kts | 96° |
| 2026-04-29 20:55 | 40.46526 | 21.12374 | 39053 ft | 499 kts | 96° |
| 2026-04-29 20:55 | 40.46109 | 21.16864 | 38726 ft | 496 kts | 96° |
| 2026-04-29 20:55 | 40.45693 | 21.21291 | 38172 ft | 492 kts | 96° |
| 2026-04-29 20:55 | 40.45277 | 21.25730 | 37581 ft | 488 kts | 95° |
| 2026-04-29 20:56 | 40.45110 | 21.30160 | 37011 ft | 483 kts | 88° |
| 2026-04-29 20:56 | 40.45170 | 21.34549 | 36468 ft | 478 kts | 88° |
| 2026-04-29 20:56 | 40.45220 | 21.38894 | 35947 ft | 474 kts | 88° |
| 2026-04-29 20:56 | 40.45261 | 21.43154 | 35440 ft | 470 kts | 88° |
| 2026-04-29 20:57 | 40.45288 | 21.46094 | 35100 ft | 468 kts | 88° |
| 2026-04-29 20:57 | 40.45325 | 21.50352 | 34452 ft | 467 kts | 88° |
| 2026-04-29 20:57 | 40.45372 | 21.56028 | 33221 ft | 474 kts | 89° |
| 2026-04-29 20:57 | 40.45407 | 21.60394 | 32144 ft | 481 kts | 89° |
| 2026-04-29 20:58 | 40.45440 | 21.64783 | 31461 ft | 480 kts | 89° |
| 2026-04-29 20:58 | 40.45461 | 21.67740 | 31087 ft | 477 kts | 89° |
| 2026-04-29 20:58 | 40.45491 | 21.72073 | 30521 ft | 473 kts | 89° |
| 2026-04-29 20:58 | 40.45519 | 21.76373 | 29905 ft | 469 kts | 89° |
| 2026-04-29 20:59 | 40.45636 | 21.80624 | 29283 ft | 464 kts | 81° |
| 2026-04-29 20:59 | 40.46354 | 21.84716 | 28674 ft | 456 kts | 69° |
| 2026-04-29 20:59 | 40.47277 | 21.88680 | 28065 ft | 453 kts | 73° |
| 2026-04-29 20:59 | 40.48040 | 21.92626 | 27503 ft | 449 kts | 74° |
| 2026-04-29 21:00 | 40.48852 | 21.96563 | 26922 ft | 445 kts | 71° |
| 2026-04-29 21:00 | 40.50003 | 22.00284 | 26359 ft | 436 kts | 57° |
| 2026-04-29 21:00 | 40.51719 | 22.03519 | 25788 ft | 430 kts | 51° |
| 2026-04-29 21:00 | 40.53161 | 22.06963 | 25231 ft | 432 kts | 66° |
| 2026-04-29 21:01 | 40.53984 | 22.10754 | 24684 ft | 430 kts | 75° |
| 2026-04-29 21:01 | 40.54643 | 22.14570 | 24070 ft | 426 kts | 75° |
| 2026-04-29 21:01 | 40.55282 | 22.18360 | 23127 ft | 424 kts | 75° |
| 2026-04-29 21:01 | 40.55931 | 22.22150 | 22065 ft | 423 kts | 75° |
| 2026-04-29 21:02 | 40.56590 | 22.25928 | 21034 ft | 422 kts | 74° |
| 2026-04-29 21:02 | 40.57583 | 22.29512 | 20045 ft | 415 kts | 58° |
| 2026-04-29 21:02 | 40.59048 | 22.32751 | 19082 ft | 410 kts | 53° |
| 2026-04-29 21:02 | 40.60753 | 22.35705 | 18126 ft | 404 kts | 46° |
| 2026-04-29 21:03 | 40.62612 | 22.38458 | 17076 ft | 401 kts | 45° |
| 2026-04-29 21:03 | 40.64392 | 22.41260 | 16063 ft | 398 kts | 50° |
| 2026-04-29 21:03 | 40.66091 | 22.44116 | 15077 ft | 394 kts | 50° |
| 2026-04-29 21:03 | 40.67754 | 22.46971 | 14114 ft | 391 kts | 52° |
| 2026-04-29 21:04 | 40.69441 | 22.49747 | 13094 ft | 387 kts | 47° |
| 2026-04-29 21:04 | 40.71251 | 22.52344 | 12067 ft | 383 kts | 45° |
| 2026-04-29 21:04 | 40.73038 | 22.54861 | 11085 ft | 380 kts | 45° |
| 2026-04-29 21:04 | 40.74836 | 22.57380 | 10126 ft | 376 kts | 45° |
| 2026-04-29 21:05 | 40.76424 | 22.60102 | 9085 ft | 374 kts | 61° |
| 2026-04-29 21:05 | 40.77239 | 22.63325 | 8186 ft | 369 kts | 83° |
| 2026-04-29 21:05 | 40.77466 | 22.66594 | 7880 ft | 347 kts | 85° |
| 2026-04-29 21:05 | 40.77669 | 22.69662 | 7661 ft | 325 kts | 85° |
| 2026-04-29 21:06 | 40.77754 | 22.72207 | 7475 ft | 307 kts | 96° |
| 2026-04-29 21:06 | 40.77157 | 22.74871 | 7032 ft | 294 kts | 121° |
| 2026-04-29 21:06 | 40.75999 | 22.77068 | 6431 ft | 291 kts | 128° |
| 2026-04-29 21:06 | 40.74805 | 22.79191 | 5903 ft | 286 kts | 129° |
| 2026-04-29 21:07 | 40.73438 | 22.81006 | 5577 ft | 271 kts | 140° |
| 2026-04-29 21:07 | 40.72077 | 22.82603 | 5415 ft | 253 kts | 139° |
| 2026-04-29 21:07 | 40.70834 | 22.84086 | 5262 ft | 239 kts | 140° |
| 2026-04-29 21:07 | 40.69613 | 22.85524 | 4908 ft | 234 kts | 140° |
| 2026-04-29 21:08 | 40.68399 | 22.86932 | 4491 ft | 232 kts | 140° |
| 2026-04-29 21:08 | 40.67204 | 22.88304 | 4120 ft | 228 kts | 140° |
| 2026-04-29 21:08 | 40.66011 | 22.89666 | 3698 ft | 226 kts | 140° |
| 2026-04-29 21:08 | 40.64834 | 22.91006 | 3303 ft | 224 kts | 140° |
| 2026-04-29 21:09 | 40.63691 | 22.92311 | 3143 ft | 211 kts | 140° |
| 2026-04-29 21:09 | 40.62557 | 22.93485 | 2824 ft | 205 kts | 150° |
| 2026-04-29 21:09 | 40.61247 | 22.94175 | 2458 ft | 204 kts | 166° |
| 2026-04-29 21:09 | 40.59923 | 22.94541 | 2284 ft | 185 kts | 168° |
| 2026-04-29 21:10 | 40.58697 | 22.94887 | 1881 ft | 173 kts | 166° |
| 2026-04-29 21:10 | 40.57600 | 22.95239 | 1614 ft | 159 kts | 165° |
| 2026-04-29 21:10 | 40.56564 | 22.95574 | 1324 ft | 148 kts | 165° |
| 2026-04-29 21:10 | 40.55578 | 22.95901 | 857 ft | 148 kts | 165° |
| 2026-04-29 21:11 | 40.54572 | 22.96229 | 571 ft | 152 kts | 165° |
| 2026-04-29 21:11 | 40.53538 | 22.96575 | 235 ft | 156 kts | 163° |
| 2026-04-29 21:11 | 40.52540 | 22.96917 | 34 ft | 142 kts | 164° |
| 2026-04-29 21:11 | 40.51563 | 22.97257 | 27 ft | 129 kts | 170° |
| 2026-04-29 21:12 | 40.50984 | 22.97426 | 25 ft | 41 kts | 163° |
| 2026-04-29 21:12 | 40.50931 | 22.97476 | 26 ft | 0 kts | 110° |
| 2026-04-29 21:12 | 40.50928 | 22.97509 | 26 ft | 25 kts | 90° |
| 2026-04-29 21:12 | 40.51068 | 22.97613 | 27 ft | 20 kts | 327° |
| 2026-04-29 21:13 | 40.51180 | 22.97534 | 26 ft | 20 kts | 352° |
| 2026-04-29 21:13 | 40.51323 | 22.97491 | 26 ft | 22 kts | 346° |
| 2026-04-29 21:13 | 40.51483 | 22.97443 | 25 ft | 25 kts | 347° |
| 2026-04-29 21:13 | 40.51659 | 22.97393 | 28 ft | 27 kts | 348° |
| 2026-04-29 21:14 | 40.51817 | 22.97355 | 28 ft | 27 kts | 356° |
| 2026-04-29 21:14 | 40.51890 | 22.97439 | 24 ft | 20 kts | 66° |
| 2026-04-29 21:14 | 40.51956 | 22.97603 | 25 ft | 21 kts | 62° |
| 2026-04-29 21:14 | 40.52071 | 22.97625 | 29 ft | 18 kts | 350° |
| 2026-04-29 21:15 | 40.52195 | 22.97609 | 25 ft | 19 kts | 7° |
| 2026-04-29 21:15 | 40.52257 | 22.97667 | 25 ft | 0 kts | 48° |